createdAt,value
2023-04-09T00:00:34.499Z,19.08
2023-04-09T00:03:06.228Z,20.88
2023-04-09T00:05:41.267Z,23.35
2023-04-09T00:08:08.652Z,19.85
2023-04-09T00:10:44.532Z,19.48
2023-04-09T00:13:12.796Z,22.55
2023-04-09T00:15:41.864Z,20.55
2023-04-09T00:18:12.740Z,24.48
2023-04-09T00:20:41.325Z,22.08
2023-04-09T00:23:13.040Z,21.80
2023-04-09T00:25:44.439Z,22.67
2023-04-09T00:28:12.742Z,23.33
2023-04-09T00:30:40.338Z,16.50
2023-04-09T00:33:07.634Z,21.98
2023-04-09T00:35:36.313Z,22.83
2023-04-09T00:38:03.821Z,24.33
2023-04-09T00:40:32.630Z,23.45
2023-04-09T00:43:01.140Z,28.60
2023-04-09T00:45:30.216Z,21.25
2023-04-09T00:48:03.987Z,23.88
2023-04-09T00:50:32.200Z,24.10
2023-04-09T00:53:02.622Z,22.55
2023-04-09T00:55:32.312Z,20.10
2023-04-09T00:58:00.378Z,21.33
2023-04-09T01:00:28.115Z,20.95
2023-04-09T01:02:59.792Z,20.20
2023-04-09T01:06:08.021Z,22.20
2023-04-09T01:09:09.133Z,19.13
2023-04-09T01:12:02.854Z,21.65
2023-04-09T01:14:54.366Z,20.73
2023-04-09T01:18:07.760Z,21.90
2023-04-09T01:21:10.272Z,22.63
2023-04-09T01:24:20.950Z,19.00
2023-04-09T01:27:06.387Z,20.90
2023-04-09T01:29:53.643Z,19.25
2023-04-09T01:32:25.722Z,18.45
2023-04-09T01:34:56.401Z,19.45
2023-04-09T01:37:27.672Z,19.80
2023-04-09T01:39:57.023Z,16.98
2023-04-09T01:42:29.610Z,21.77
2023-04-09T01:45:05.785Z,21.95
2023-04-09T01:47:34.426Z,26.13
2023-04-09T01:50:03.328Z,28.83
2023-04-09T01:52:31.882Z,22.10
2023-04-09T01:54:59.920Z,28.92
2023-04-09T01:57:27.825Z,27.88
2023-04-09T01:59:57.650Z,26.30
2023-04-09T02:03:19.308Z,26.70
2023-04-09T02:06:03.362Z,21.63
2023-04-09T02:08:36.474Z,25.10
2023-04-09T02:11:11.768Z,22.95
2023-04-09T02:13:43.034Z,28.02
2023-04-09T02:16:16.402Z,29.95
2023-04-09T02:18:51.096Z,21.17
2023-04-09T02:21:19.488Z,25.35
2023-04-09T02:23:48.273Z,22.80
2023-04-09T02:26:15.582Z,25.83
2023-04-09T02:28:53.986Z,22.45
2023-04-09T02:31:21.641Z,26.95
2023-04-09T02:33:49.930Z,23.70
2023-04-09T02:36:18.666Z,26.95
2023-04-09T02:38:46.208Z,19.27
2023-04-09T02:41:13.920Z,21.10
2023-04-09T02:43:42.904Z,27.85
2023-04-09T02:46:12.477Z,27.42
2023-04-09T02:48:40.244Z,26.80
2023-04-09T02:51:08.776Z,23.65
2023-04-09T02:53:37.882Z,36.42
2023-04-09T02:56:05.488Z,26.48
2023-04-09T02:58:32.810Z,29.05
2023-04-09T03:01:00.537Z,26.73
2023-04-09T03:03:28.988Z,27.50
2023-04-09T03:05:57.032Z,27.40
2023-04-09T03:08:25.831Z,25.17
2023-04-09T03:11:01.029Z,25.20
2023-04-09T03:13:30.380Z,29.23
2023-04-09T03:16:01.025Z,25.92
2023-04-09T03:18:35.165Z,27.20
2023-04-09T03:21:12.184Z,26.27
2023-04-09T03:23:50.925Z,24.75
2023-04-09T03:26:25.822Z,30.75
2023-04-09T03:28:56.331Z,30.58
2023-04-09T03:31:23.724Z,30.15
2023-04-09T03:33:51.360Z,28.52
2023-04-09T03:36:21.291Z,29.45
2023-04-09T03:39:04.283Z,31.30
2023-04-09T03:41:37.895Z,26.08
2023-04-09T03:44:09.841Z,31.20
2023-04-09T03:46:47.945Z,24.40
2023-04-09T03:49:27.475Z,32.80
2023-04-09T03:52:01.695Z,24.95
2023-04-09T03:54:36.969Z,21.70
2023-04-09T03:57:09.632Z,25.88
2023-04-09T03:59:47.465Z,25.98
2023-04-09T04:02:29.761Z,28.38
2023-04-09T04:05:01.979Z,27.50
2023-04-09T04:07:37.344Z,20.30
2023-04-09T04:10:14.323Z,23.10
2023-04-09T04:12:47.070Z,28.13
2023-04-09T04:15:22.562Z,24.02
2023-04-09T04:17:56.191Z,22.15
2023-04-09T04:20:55.303Z,21.08
2023-04-09T04:23:22.875Z,21.13
2023-04-09T04:26:00.872Z,15.70
2023-04-09T04:28:35.507Z,22.05
2023-04-09T04:31:12.594Z,24.10
2023-04-09T04:33:42.999Z,19.20
2023-04-09T04:36:18.988Z,23.42
2023-04-09T04:38:56.723Z,22.55
2023-04-09T04:41:37.537Z,28.58
2023-04-09T04:44:21.741Z,29.42
2023-04-09T04:46:54.884Z,20.05
2023-04-09T04:49:22.288Z,19.48
2023-04-09T04:51:49.642Z,26.27
2023-04-09T04:54:18.919Z,22.65
2023-04-09T04:56:52.495Z,23.13
2023-04-09T04:59:33.081Z,22.35
2023-04-09T05:02:04.502Z,19.95
2023-04-09T05:04:38.526Z,23.48
2023-04-09T05:07:09.868Z,23.52
2023-04-09T05:09:46.333Z,23.17
2023-04-09T05:12:17.920Z,21.65
2023-04-09T05:14:48.919Z,22.85
2023-04-09T05:17:16.731Z,19.75
2023-04-09T05:19:53.412Z,23.58
2023-04-09T05:22:27.229Z,25.48
2023-04-09T05:24:57.058Z,22.90
2023-04-09T05:27:30.015Z,32.55
2023-04-09T05:30:01.542Z,22.70
2023-04-09T05:32:31.546Z,21.63
2023-04-09T05:34:58.827Z,22.95
2023-04-09T05:37:29.389Z,30.70
2023-04-09T05:39:58.212Z,31.58
2023-04-09T05:42:28.282Z,25.92
2023-04-09T05:45:03.638Z,25.30
2023-04-09T05:47:31.259Z,26.85
2023-04-09T05:50:07.716Z,28.95
2023-04-09T05:52:41.262Z,23.33
2023-04-09T05:55:10.602Z,26.55
2023-04-09T05:57:45.460Z,24.08
2023-04-09T06:00:17.778Z,25.02
2023-04-09T06:02:46.085Z,22.33
2023-04-09T06:05:13.931Z,22.27
2023-04-09T06:07:41.273Z,29.05
2023-04-09T06:10:09.837Z,24.88
2023-04-09T06:12:38.178Z,25.50
2023-04-09T06:15:06.862Z,21.58
2023-04-09T06:17:35.344Z,22.00
2023-04-09T06:20:05.174Z,21.15
2023-04-09T06:22:32.925Z,21.00
2023-04-09T06:25:00.477Z,21.80
2023-04-09T06:27:28.034Z,22.33
2023-04-09T06:29:55.719Z,21.88
2023-04-09T06:32:23.113Z,22.45
2023-04-09T06:34:51.642Z,26.02
2023-04-09T06:37:18.871Z,23.50
2023-04-09T06:40:01.090Z,27.88
2023-04-09T06:42:29.159Z,26.50
2023-04-09T06:45:08.864Z,23.80
2023-04-09T06:47:36.762Z,22.60
2023-04-09T06:50:05.668Z,29.15
2023-04-09T06:52:33.064Z,22.52
2023-04-09T06:55:01.052Z,28.23
2023-04-09T06:57:28.589Z,20.70
2023-04-09T06:59:56.327Z,28.33
2023-04-09T07:02:25.339Z,25.92
2023-04-09T07:04:56.604Z,30.08
2023-04-09T07:07:27.146Z,22.70
2023-04-09T07:09:54.532Z,21.00
2023-04-09T07:12:29.453Z,21.25
2023-04-09T07:15:07.769Z,24.02
2023-04-09T07:17:38.467Z,29.00
2023-04-09T07:20:08.362Z,24.85
2023-04-09T07:22:36.742Z,27.20
2023-04-09T07:25:06.330Z,24.83
2023-04-09T07:27:33.654Z,25.63
2023-04-09T07:30:03.369Z,21.83
2023-04-09T07:32:32.554Z,27.52
2023-04-09T07:35:00.653Z,25.05
2023-04-09T07:37:28.005Z,24.65
2023-04-09T07:39:56.284Z,28.02
2023-04-09T07:42:31.869Z,24.60
2023-04-09T07:44:59.361Z,24.88
2023-04-09T07:47:28.638Z,24.98
2023-04-09T07:49:56.272Z,29.30
2023-04-09T07:52:25.797Z,31.60
2023-04-09T07:54:55.689Z,29.10
2023-04-09T07:57:23.529Z,29.15
2023-04-09T07:59:54.136Z,25.95
2023-04-09T08:02:23.213Z,26.13
2023-04-09T08:04:53.172Z,24.27
2023-04-09T08:07:27.164Z,25.88
2023-04-09T08:09:56.123Z,22.55
2023-04-09T08:12:26.496Z,27.02
2023-04-09T08:14:53.859Z,25.98
2023-04-09T08:17:22.418Z,27.63
2023-04-09T08:19:50.210Z,28.42
2023-04-09T08:22:26.734Z,29.20
2023-04-09T08:24:57.980Z,23.98
2023-04-09T08:27:26.171Z,29.13
2023-04-09T08:29:55.295Z,23.70
2023-04-09T08:32:23.993Z,27.15
2023-04-09T08:34:53.488Z,25.58
2023-04-09T08:37:31.032Z,22.40
2023-04-09T08:40:12.060Z,27.08
2023-04-09T08:42:49.319Z,23.83
2023-04-09T08:45:17.238Z,25.00
2023-04-09T08:47:49.379Z,27.05
2023-04-09T08:50:21.873Z,26.73
2023-04-09T08:52:51.477Z,30.10
2023-04-09T08:55:20.258Z,27.60
2023-04-09T08:57:52.277Z,24.05
2023-04-09T09:00:22.414Z,28.45
2023-04-09T09:03:04.325Z,24.08
2023-04-09T09:05:41.766Z,20.98
2023-04-09T09:08:23.456Z,25.27
2023-04-09T09:10:50.858Z,18.77
2023-04-09T09:13:28.167Z,29.80
2023-04-09T09:16:13.887Z,23.73
2023-04-09T09:18:45.181Z,28.48
2023-04-09T09:21:19.519Z,19.17
2023-04-09T09:23:48.430Z,24.60
2023-04-09T09:26:23.117Z,23.45
2023-04-09T09:28:55.555Z,19.95
2023-04-09T09:31:23.742Z,21.42
2023-04-09T09:33:52.905Z,22.95
2023-04-09T09:36:37.867Z,22.00
2023-04-09T09:39:15.061Z,23.00
2023-04-09T09:41:44.230Z,27.40
2023-04-09T09:44:33.835Z,20.45
2023-04-09T09:47:03.856Z,23.85
2023-04-09T09:49:32.483Z,24.23
2023-04-09T09:52:03.428Z,20.67
2023-04-09T09:54:46.489Z,25.17
2023-04-09T09:57:18.915Z,25.98
2023-04-09T10:00:00.601Z,27.48
2023-04-09T10:02:37.945Z,33.10
2023-04-09T10:05:09.998Z,27.70
2023-04-09T10:07:38.708Z,29.83
2023-04-09T10:10:09.592Z,29.70
2023-04-09T10:12:37.576Z,30.27
2023-04-09T10:15:06.412Z,30.15
2023-04-09T10:17:35.834Z,29.05
2023-04-09T10:20:29.740Z,29.10
2023-04-09T10:23:04.500Z,28.30
2023-04-09T10:25:43.920Z,29.25
2023-04-09T10:28:19.536Z,27.45
2023-04-09T10:30:51.505Z,26.50
2023-04-09T10:33:28.933Z,25.80
2023-04-09T10:36:12.944Z,25.75
2023-04-09T10:38:54.556Z,25.80
2023-04-09T10:41:34.050Z,25.45
2023-04-09T10:44:07.318Z,25.50
2023-04-09T10:46:37.083Z,20.63
2023-04-09T10:49:41.589Z,21.75
2023-04-09T10:52:13.906Z,20.23
2023-04-09T10:54:48.340Z,21.58
2023-04-09T10:57:22.433Z,20.77
2023-04-09T10:59:55.132Z,19.40
2023-04-09T11:02:39.071Z,20.58
2023-04-09T11:06:09.474Z,18.20
2023-04-09T11:08:38.983Z,18.23
2023-04-09T11:11:08.086Z,16.40
2023-04-09T11:13:35.630Z,17.05
2023-04-09T11:16:07.318Z,14.73
2023-04-09T11:18:37.218Z,18.35
2023-04-09T11:21:10.579Z,14.93
2023-04-09T11:23:43.811Z,14.45
2023-04-09T11:26:32.354Z,15.65
2023-04-09T11:29:08.280Z,14.60
2023-04-09T11:31:46.956Z,13.20
2023-04-09T11:34:43.547Z,13.60
2023-04-09T11:37:21.671Z,14.35
2023-04-09T11:39:59.563Z,14.38
2023-04-09T11:42:57.004Z,14.05
2023-04-09T11:45:42.753Z,14.52
2023-04-09T11:48:18.496Z,13.93
2023-04-09T11:50:48.837Z,14.57
2023-04-09T11:53:24.696Z,14.23
2023-04-09T11:55:59.588Z,14.70
2023-04-09T11:58:28.530Z,15.70
2023-04-09T12:01:07.149Z,14.05
2023-04-09T12:03:43.256Z,14.90
2023-04-09T12:06:14.868Z,15.25
2023-04-09T12:08:49.560Z,12.68
2023-04-09T12:11:38.370Z,13.40
2023-04-09T12:14:07.805Z,12.82
2023-04-09T12:16:51.714Z,12.68
2023-04-09T12:19:22.865Z,14.90
2023-04-09T12:21:58.971Z,13.70
2023-04-09T12:24:29.822Z,13.82
2023-04-09T12:26:57.553Z,12.55
2023-04-09T12:29:26.896Z,13.70
2023-04-09T12:31:54.617Z,13.88
2023-04-09T12:34:27.284Z,13.38
2023-04-09T12:36:55.620Z,13.27
2023-04-09T12:39:25.246Z,13.25
2023-04-09T12:42:01.163Z,14.38
2023-04-09T12:44:33.571Z,12.63
2023-04-09T12:47:02.360Z,13.98
2023-04-09T12:49:33.254Z,13.90
2023-04-09T12:52:02.962Z,12.15
2023-04-09T12:54:35.970Z,13.93
2023-04-09T12:57:08.010Z,11.90
2023-04-09T12:59:43.367Z,26.60
2023-04-09T13:02:12.949Z,13.27
2023-04-09T13:04:41.417Z,12.70
2023-04-09T13:07:12.552Z,11.43
2023-04-09T13:09:42.486Z,11.95
2023-04-09T13:12:11.308Z,12.73
2023-04-09T13:14:44.343Z,12.20
2023-04-09T13:17:11.629Z,14.07
2023-04-09T13:19:40.340Z,13.57
2023-04-09T13:22:10.954Z,12.17
2023-04-09T13:24:39.594Z,11.68
2023-04-09T13:27:09.707Z,12.68
2023-04-09T13:29:37.226Z,13.88
2023-04-09T13:32:07.453Z,10.85
2023-04-09T13:34:37.678Z,11.98
2023-04-09T13:37:05.399Z,12.48
2023-04-09T13:39:33.268Z,12.70
2023-04-09T13:42:07.303Z,12.18
2023-04-09T13:44:40.679Z,12.80
2023-04-09T13:47:08.081Z,12.38
2023-04-09T13:49:35.466Z,15.07
2023-04-09T13:52:05.005Z,13.18
2023-04-09T13:54:34.891Z,14.32
2023-04-09T13:57:03.609Z,13.70
2023-04-09T13:59:31.526Z,12.93
2023-04-09T14:02:01.414Z,12.25
2023-04-09T14:04:30.023Z,12.18
2023-04-09T14:06:58.621Z,12.18
2023-04-09T14:09:28.551Z,12.63
2023-04-09T14:11:56.128Z,12.10
2023-04-09T14:14:23.864Z,12.52
2023-04-09T14:16:53.683Z,13.02
2023-04-09T14:19:23.277Z,12.07
2023-04-09T14:21:58.167Z,13.48
2023-04-09T14:24:29.703Z,13.57
2023-04-09T14:27:01.962Z,12.18
2023-04-09T14:29:32.898Z,13.82
2023-04-09T14:32:06.090Z,12.77
2023-04-09T14:34:35.345Z,15.00
2023-04-09T14:37:03.530Z,13.20
2023-04-09T14:39:35.469Z,12.38
2023-04-09T14:42:06.281Z,12.32
2023-04-09T14:44:37.839Z,11.55
2023-04-09T14:47:08.624Z,13.32
2023-04-09T14:49:37.233Z,13.00
2023-04-09T14:52:05.776Z,12.48
2023-04-09T14:54:35.457Z,11.07
2023-04-09T14:57:08.861Z,12.10
2023-04-09T14:59:38.418Z,11.38
2023-04-09T15:02:06.822Z,12.07
2023-04-09T15:04:34.693Z,11.48
2023-04-09T15:07:10.987Z,10.23
2023-04-09T15:09:38.840Z,12.98
2023-04-09T15:12:08.249Z,10.88
2023-04-09T15:14:36.752Z,10.98
2023-04-09T15:17:10.821Z,10.25
2023-04-09T15:19:40.103Z,11.55
2023-04-09T15:22:07.748Z,10.18
2023-04-09T15:24:35.292Z,11.00
2023-04-09T15:27:05.170Z,8.85
2023-04-09T15:29:34.423Z,9.73
2023-04-09T15:32:04.840Z,10.98
2023-04-09T15:34:35.454Z,9.43
2023-04-09T15:37:03.646Z,10.73
2023-04-09T15:39:32.741Z,10.43
2023-04-09T15:42:02.012Z,9.57
2023-04-09T15:44:36.391Z,10.60
2023-04-09T15:47:04.740Z,9.70
2023-04-09T15:49:37.113Z,9.90
2023-04-09T15:52:06.797Z,9.60
2023-04-09T15:54:37.086Z,8.40
2023-04-09T15:57:18.459Z,8.27
2023-04-09T15:59:48.406Z,8.23
2023-04-09T16:02:17.519Z,6.95
2023-04-09T16:04:51.955Z,9.50
2023-04-09T16:07:19.730Z,13.10
2023-04-09T16:09:49.739Z,25.27
2023-04-09T16:12:17.105Z,13.02
2023-04-09T16:14:45.677Z,12.43
2023-04-09T16:17:13.026Z,10.15
2023-04-09T16:19:40.401Z,9.60
2023-04-09T16:22:09.923Z,11.23
2023-04-09T16:24:37.445Z,9.65
2023-04-09T16:27:04.929Z,10.05
2023-04-09T16:29:34.655Z,9.43
2023-04-09T16:32:05.327Z,10.80
2023-04-09T16:34:37.504Z,11.43
2023-04-09T16:37:07.737Z,10.35
2023-04-09T16:39:36.937Z,10.50
2023-04-09T16:42:07.910Z,11.02
2023-04-09T16:44:35.752Z,11.98
2023-04-09T16:47:11.037Z,10.90
2023-04-09T16:49:38.369Z,10.90
2023-04-09T16:52:05.794Z,10.48
2023-04-09T16:54:33.817Z,9.80
2023-04-09T16:57:01.894Z,9.98
2023-04-09T16:59:32.486Z,10.13
2023-04-09T17:02:06.156Z,9.63
2023-04-09T17:04:37.689Z,10.52
2023-04-09T17:07:09.140Z,10.75
2023-04-09T17:09:40.431Z,11.52
2023-04-09T17:12:14.141Z,10.45
2023-04-09T17:14:42.854Z,10.35
2023-04-09T17:17:14.675Z,10.63
2023-04-09T17:19:42.889Z,10.00
2023-04-09T17:22:10.734Z,11.10
2023-04-09T17:24:39.974Z,10.85
2023-04-09T17:27:07.582Z,12.02
2023-04-09T17:29:38.733Z,12.25
2023-04-09T17:32:06.874Z,12.95
2023-04-09T17:34:35.815Z,11.93
2023-04-09T17:37:12.334Z,11.43
2023-04-09T17:39:39.615Z,11.43
2023-04-09T17:42:07.699Z,11.48
2023-04-09T17:44:40.134Z,11.68
2023-04-09T17:47:08.933Z,12.40
2023-04-09T17:49:39.184Z,14.02
2023-04-09T17:52:06.692Z,12.02
2023-04-09T17:54:35.008Z,11.48
2023-04-09T17:57:08.542Z,13.13
2023-04-09T17:59:36.784Z,13.00
2023-04-09T18:02:04.398Z,12.63
2023-04-09T18:04:33.648Z,13.50
2023-04-09T18:07:01.326Z,12.38
2023-04-09T18:09:28.615Z,10.93
2023-04-09T18:11:57.726Z,11.25
2023-04-09T18:14:25.107Z,12.77
2023-04-09T18:16:52.640Z,12.70
2023-04-09T18:19:21.722Z,11.95
2023-04-09T18:21:51.157Z,12.57
2023-04-09T18:24:18.484Z,14.20
2023-04-09T18:26:45.719Z,13.88
2023-04-09T18:29:13.124Z,11.70
2023-04-09T18:31:41.879Z,12.80
2023-04-09T18:34:09.971Z,12.60
2023-04-09T18:36:38.985Z,12.95
2023-04-09T18:39:06.560Z,14.70
2023-04-09T18:41:33.904Z,11.77
2023-04-09T18:44:03.868Z,11.88
2023-04-09T18:46:31.613Z,13.70
2023-04-09T18:48:59.048Z,13.40
2023-04-09T18:51:27.137Z,12.95
2023-04-09T18:53:55.065Z,13.07
2023-04-09T18:56:22.797Z,13.82
2023-04-09T18:58:53.689Z,13.95
2023-04-09T19:01:25.090Z,14.38
2023-04-09T19:03:53.572Z,14.48
2023-04-09T19:06:21.640Z,13.23
2023-04-09T19:08:50.440Z,12.52
2023-04-09T19:11:18.019Z,12.68
2023-04-09T19:13:45.437Z,16.27
2023-04-09T19:16:23.441Z,13.38
2023-04-09T19:18:52.339Z,14.73
2023-04-09T19:21:20.108Z,15.95
2023-04-09T19:23:49.038Z,13.45
2023-04-09T19:26:16.545Z,16.10
2023-04-09T19:28:45.081Z,14.88
2023-04-09T19:31:14.663Z,12.65
2023-04-09T19:33:42.014Z,14.63
2023-04-09T19:36:09.681Z,13.15
2023-04-09T19:38:37.035Z,14.50
2023-04-09T19:41:05.241Z,15.98
2023-04-09T19:43:32.886Z,16.50
2023-04-09T19:46:06.742Z,20.27
2023-04-09T19:48:35.095Z,15.75
2023-04-09T19:51:03.583Z,15.05
2023-04-09T19:53:31.492Z,16.50
2023-04-09T19:56:00.097Z,14.45
2023-04-09T19:58:27.475Z,14.38
2023-04-09T20:00:56.310Z,18.95
2023-04-09T20:03:23.810Z,14.90
2023-04-09T20:05:53.509Z,17.05
2023-04-09T20:08:21.397Z,18.10
2023-04-09T20:10:49.683Z,17.15
2023-04-09T20:13:16.992Z,17.95
2023-04-09T20:15:46.876Z,16.33
2023-04-09T20:18:21.913Z,19.83
2023-04-09T20:20:50.856Z,17.20
2023-04-09T20:23:20.397Z,16.77
2023-04-09T20:25:55.976Z,15.38
2023-04-09T20:28:24.435Z,16.02
2023-04-09T20:30:51.998Z,14.45
2023-04-09T20:33:19.448Z,15.02
2023-04-09T20:35:48.186Z,13.85
2023-04-09T20:38:15.611Z,14.70
2023-04-09T20:40:44.097Z,14.95
2023-04-09T20:43:14.028Z,14.32
2023-04-09T20:45:41.350Z,13.98
2023-04-09T20:48:08.876Z,15.35
2023-04-09T20:50:37.951Z,15.25
2023-04-09T20:53:05.249Z,17.63
2023-04-09T20:55:34.873Z,16.45
2023-04-09T20:58:02.892Z,15.55
2023-04-09T21:00:30.583Z,16.08
2023-04-09T21:02:58.937Z,16.55
2023-04-09T21:05:26.707Z,14.70
2023-04-09T21:07:54.213Z,18.70
2023-04-09T21:10:22.268Z,16.77
2023-04-09T21:15:31.047Z,16.17
2023-04-09T21:17:58.327Z,18.75
2023-04-09T21:20:25.600Z,16.73
2023-04-09T21:22:54.468Z,16.85
2023-04-09T21:25:22.062Z,18.88
2023-04-09T21:27:49.698Z,18.00
2023-04-09T21:30:16.995Z,16.15
2023-04-09T21:32:45.483Z,16.02
2023-04-09T21:35:15.989Z,16.70
2023-04-09T21:37:45.500Z,14.43
2023-04-09T21:40:13.341Z,15.75
2023-04-09T21:42:41.770Z,13.80
2023-04-09T21:45:10.940Z,14.02
2023-04-09T21:47:38.938Z,14.63
2023-04-09T21:50:07.421Z,13.43
2023-04-09T21:52:35.472Z,13.85
2023-04-09T21:55:03.907Z,15.55
2023-04-09T21:57:32.647Z,14.70
2023-04-09T21:59:59.916Z,12.73
2023-04-09T22:02:28.280Z,12.63
2023-04-09T22:04:59.130Z,14.95
2023-04-09T22:07:26.627Z,12.75
2023-04-09T22:09:58.427Z,13.88
2023-04-09T22:12:25.974Z,13.57
2023-04-09T22:14:54.610Z,13.10
2023-04-09T22:17:22.222Z,14.43
2023-04-09T22:19:51.160Z,14.98
2023-04-09T22:22:19.948Z,13.73
2023-04-09T22:24:47.462Z,14.40
2023-04-09T22:27:14.804Z,13.98
2023-04-09T22:29:42.315Z,15.85
2023-04-09T22:32:10.716Z,13.93
2023-04-09T22:34:38.116Z,12.40
2023-04-09T22:37:06.292Z,15.07
2023-04-09T22:39:33.709Z,14.70
2023-04-09T22:42:01.812Z,14.32
2023-04-09T22:44:29.618Z,13.93
2023-04-09T22:46:56.978Z,14.05
2023-04-09T22:49:24.378Z,13.70
2023-04-09T22:51:53.438Z,11.98
2023-04-09T22:54:24.911Z,12.15
2023-04-09T22:56:52.217Z,12.82
2023-04-09T22:59:22.972Z,11.38
2023-04-09T23:01:50.767Z,13.48
2023-04-09T23:04:22.978Z,13.57
2023-04-09T23:06:50.309Z,11.20
2023-04-09T23:09:17.607Z,13.40
2023-04-09T23:11:46.021Z,12.85
2023-04-09T23:14:14.748Z,11.27
2023-04-09T23:16:41.969Z,11.05
2023-04-09T23:19:13.738Z,11.88
2023-04-09T23:21:41.074Z,12.88
2023-04-09T23:24:09.278Z,14.35
2023-04-09T23:26:36.729Z,9.98
2023-04-09T23:29:04.568Z,13.18
2023-04-09T23:31:32.042Z,12.45
2023-04-09T23:33:59.971Z,13.23
2023-04-09T23:36:27.793Z,12.57
2023-04-09T23:38:55.048Z,13.07
2023-04-09T23:41:22.289Z,10.52
2023-04-09T23:43:53.186Z,11.35
2023-04-09T23:46:21.288Z,12.27
2023-04-09T23:48:48.770Z,10.63
2023-04-09T23:51:20.790Z,11.05
2023-04-09T23:53:48.301Z,10.90
2023-04-09T23:56:16.205Z,10.85
2023-04-09T23:58:43.445Z,12.48
